Time;durP1;ratioP1;P1;durP2;ratioP2;P2;SDS_P1;SDS_P2;PMS_P1;PMS_P2;Temp;Humidity;BMP_temperature;BMP_pressure;BME280_temperature;BME280_humidity;BME280_pressure;Samples;Min_cycle;Max_cycle;Signal;HPM_P1;HPM_P2
2022/11/09 00:00:33;;;;;;;0.30;0.30;;;;;;;7.55;100.00;98756.69;4997572;28;20502;-82
2022/11/09 00:02:59;;;;;;;0.40;0.40;;;;;;;7.57;100.00;98767.16;5012190;28;20029;-81
2022/11/09 00:05:24;;;;;;;0.40;0.40;;;;;;;7.25;100.00;98721.47;5004922;28;20954;-79
2022/11/09 00:07:50;;;;;;;0.38;0.38;;;;;;;7.49;100.00;98765.53;5011188;28;20124;-80
2022/11/09 00:10:16;;;;;;;0.40;0.40;;;;;;;7.46;100.00;98766.75;4991900;28;20033;-80
2022/11/09 00:12:41;;;;;;;0.30;0.30;;;;;;;7.48;100.00;98777.25;5020474;28;21021;-83
2022/11/09 00:15:07;;;;;;;0.40;0.40;;;;;;;7.51;100.00;98782.19;5004174;28;20037;-80
2022/11/09 00:17:33;;;;;;;0.40;0.40;;;;;;;7.37;100.00;98754.59;5026351;28;20033;-83
2022/11/09 00:19:58;;;;;;;0.40;0.40;;;;;;;7.54;100.00;98792.50;5017110;28;20040;-80
2022/11/09 00:22:24;;;;;;;0.40;0.40;;;;;;;7.58;100.00;98790.22;5020999;28;20033;-80
2022/11/09 00:24:49;;;;;;;0.40;0.40;;;;;;;7.58;100.00;98784.88;4989668;28;20065;-80
2022/11/09 00:27:15;;;;;;;0.40;0.40;;;;;;;7.47;100.00;98776.41;5023168;28;20387;-81
2022/11/09 00:29:41;;;;;;;0.40;0.40;;;;;;;7.52;100.00;98788.38;5003689;28;20033;-83
2022/11/09 00:32:09;;;;;;;0.38;0.38;;;;;;;7.44;100.00;98787.53;5021315;28;20099;-82
2022/11/09 00:34:34;;;;;;;0.40;0.40;;;;;;;7.36;100.00;98793.06;5057212;28;20538;-80
2022/11/09 00:37:00;;;;;;;0.40;0.40;;;;;;;7.27;100.00;98799.63;4991792;28;20072;-82
2022/11/09 00:39:25;;;;;;;0.47;0.47;;;;;;;7.17;100.00;98793.84;5015061;28;20033;-84
2022/11/09 00:41:51;;;;;;;0.40;0.40;;;;;;;7.30;100.00;98817.09;5008326;28;20475;-87
2022/11/09 00:44:16;;;;;;;0.40;0.40;;;;;;;7.20;100.00;98814.84;4993948;28;20071;-82
2022/11/09 00:46:44;;;;;;;0.40;0.40;;;;;;;7.11;100.00;98808.00;5026480;28;20037;-81
2022/11/09 00:49:10;;;;;;;0.30;0.30;;;;;;;7.11;100.00;98824.88;5004816;28;20115;-85
2022/11/09 00:51:36;;;;;;;0.40;0.40;;;;;;;7.03;100.00;98809.00;5020436;28;20064;-82
2022/11/09 00:54:01;;;;;;;0.40;0.40;;;;;;;6.99;100.00;98813.94;5011075;28;20032;-82
2022/11/09 00:56:27;;;;;;;0.40;0.40;;;;;;;7.00;100.00;98823.59;5021616;28;20056;-84
2022/11/09 00:58:54;;;;;;;0.40;0.40;;;;;;;7.05;100.00;98831.03;5002534;28;20041;-82
2022/11/09 01:01:20;;;;;;;0.40;0.40;;;;;;;7.02;100.00;98834.91;4994208;28;20044;-81
2022/11/09 01:03:46;;;;;;;0.40;0.40;;;;;;;7.07;100.00;98828.97;5024057;28;20030;-82
2022/11/09 01:06:21;;;;;;;0.40;0.40;;;;;;;7.30;100.00;98844.66;4987765;28;20099;-81
2022/11/09 01:08:47;;;;;;;0.40;0.40;;;;;;;7.40;100.00;98838.94;5020643;28;20124;-82
2022/11/09 01:11:13;;;;;;;0.40;0.40;;;;;;;7.40;100.00;98834.41;4988955;28;20044;-83
2022/11/09 01:13:39;;;;;;;0.40;0.40;;;;;;;7.34;100.00;98837.91;5019236;28;20120;-83
2022/11/09 01:16:10;;;;;;;0.40;0.40;;;;;;;7.31;100.00;98837.50;5015009;28;20048;-83
2022/11/09 01:18:36;;;;;;;0.40;0.40;;;;;;;7.13;100.00;98824.69;5005793;28;20037;-81
2022/11/09 01:21:04;;;;;;;0.40;0.40;;;;;;;7.30;100.00;98855.34;5005379;28;20309;-80
2022/11/09 01:23:29;;;;;;;0.40;0.40;;;;;;;7.23;100.00;98854.53;4990310;28;20037;-82
2022/11/09 01:26:00;;;;;;;0.47;0.47;;;;;;;7.20;100.00;98850.41;5017938;28;20056;-84
2022/11/09 01:28:26;;;;;;;0.40;0.40;;;;;;;7.39;100.00;98870.19;5004592;28;20408;-83
2022/11/09 01:30:52;;;;;;;0.40;0.40;;;;;;;7.32;100.00;98853.31;5019316;28;20036;-82
2022/11/09 01:33:18;;;;;;;0.47;0.47;;;;;;;7.41;100.00;98868.16;5003323;28;20025;-81
2022/11/09 01:35:44;;;;;;;0.40;0.40;;;;;;;7.56;100.00;98876.00;5007168;28;20116;-84
2022/11/09 01:38:10;;;;;;;0.30;0.30;;;;;;;7.62;100.00;98860.97;5022746;28;20037;-81
2022/11/09 01:40:37;;;;;;;0.40;0.40;;;;;;;7.53;100.00;98846.97;5020993;28;20146;-79
2022/11/09 01:43:18;;;;;;;0.40;0.40;;;;;;;7.75;100.00;98884.25;4989615;28;20022;-79
2022/11/09 01:45:50;;;;;;;0.43;0.43;;;;;;;7.76;100.00;98881.41;5021800;28;20519;-79
2022/11/09 01:48:19;;;;;;;0.40;0.40;;;;;;;7.76;100.00;98881.41;5004225;28;20026;-81
2022/11/09 01:50:50;;;;;;;0.40;0.40;;;;;;;7.81;100.00;98886.97;5002647;28;20099;-81
2022/11/09 01:53:19;;;;;;;0.40;0.40;;;;;;;7.77;100.00;98895.59;5023661;28;20041;-80
2022/11/09 01:55:47;;;;;;;0.40;0.40;;;;;;;7.66;100.00;98894.34;5022779;28;20060;-81
2022/11/09 01:58:17;;;;;;;0.47;0.47;;;;;;;7.53;100.00;98896.97;4999736;28;20029;-82
2022/11/09 02:00:47;;;;;;;0.40;0.40;;;;;;;7.46;100.00;98907.63;4998057;28;20388;-80
2022/11/09 02:03:24;;;;;;;0.30;0.30;;;;;;;7.44;100.00;98899.03;5006497;28;20065;-81
2022/11/09 02:05:50;;;;;;;0.30;0.30;;;;;;;7.40;100.00;98909.28;5005367;28;20044;-80
2022/11/09 02:08:18;;;;;;;0.40;0.40;;;;;;;7.41;100.00;98910.09;5000521;28;20391;-79
2022/11/09 02:10:43;;;;;;;0.40;0.40;;;;;;;7.40;100.00;98903.94;5020510;28;20033;-80
2022/11/09 02:13:11;;;;;;;0.40;0.40;;;;;;;7.59;100.00;98918.38;5046146;28;20051;-81
2022/11/09 02:15:40;;;;;;;0.40;0.40;;;;;;;7.62;100.00;98912.66;5003287;28;20075;-82
2022/11/09 02:18:06;;;;;;;0.40;0.40;;;;;;;7.64;100.00;98925.81;5039065;28;20064;-79
2022/11/09 02:20:44;;;;;;;0.40;0.40;;;;;;;7.52;100.00;98933.59;5020652;28;20480;-80
2022/11/09 02:23:12;;;;;;;0.40;0.40;;;;;;;7.36;100.00;98923.25;5012652;28;20121;-81
2022/11/09 02:25:38;;;;;;;0.40;0.40;;;;;;;7.30;100.00;98932.06;4995821;28;20124;-79
2022/11/09 02:28:04;;;;;;;0.30;0.30;;;;;;;7.26;100.00;98923.63;5028714;28;20542;-80
2022/11/09 02:30:30;;;;;;;0.40;0.40;;;;;;;7.26;100.00;98935.13;5027797;28;20029;-81
2022/11/09 02:32:56;;;;;;;0.40;0.40;;;;;;;7.21;100.00;98934.09;5021818;28;20031;-81
2022/11/09 02:35:21;;;;;;;0.40;0.40;;;;;;;7.15;100.00;98943.72;5012488;28;20090;-81
2022/11/09 02:37:49;;;;;;;0.40;0.40;;;;;;;7.14;100.00;98944.72;4991585;28;20383;-79
2022/11/09 02:40:30;;;;;;;0.30;0.30;;;;;;;7.12;100.00;98949.47;5001900;28;20116;-81
2022/11/09 02:42:55;;;;;;;0.40;0.40;;;;;;;7.08;100.00;98953.56;5014490;28;20044;-80
2022/11/09 02:45:21;;;;;;;0.50;0.50;;;;;;;7.08;100.00;98963.44;5005397;28;22237;-79
2022/11/09 02:47:47;;;;;;;0.40;0.40;;;;;;;7.05;100.00;98954.78;5023037;28;20030;-79
2022/11/09 02:50:12;;;;;;;0.40;0.40;;;;;;;6.99;100.00;98952.91;5009291;28;20083;-80
2022/11/09 02:52:38;;;;;;;0.30;0.30;;;;;;;7.00;100.00;98959.88;5024825;28;20021;-81
2022/11/09 02:55:04;;;;;;;0.40;0.40;;;;;;;6.98;100.00;98972.59;5026557;28;20029;-80
2022/11/09 02:57:29;;;;;;;0.40;0.40;;;;;;;6.93;100.00;98974.22;5024199;28;20120;-80
2022/11/09 02:59:55;;;;;;;0.40;0.40;;;;;;;6.86;100.00;98982.22;5022023;28;20033;-79
2022/11/09 03:02:21;;;;;;;0.40;0.40;;;;;;;6.81;100.00;98977.44;5003948;28;20029;-81
2022/11/09 03:04:47;;;;;;;0.40;0.40;;;;;;;6.86;100.00;98976.88;4991941;28;20033;-80
2022/11/09 03:07:12;;;;;;;0.40;0.40;;;;;;;7.00;100.00;98983.09;4992422;28;20506;-80
2022/11/09 03:09:38;;;;;;;0.40;0.40;;;;;;;7.01;100.00;98982.94;5024202;28;20040;-79
2022/11/09 03:12:27;;;;;;;0.40;0.40;;;;;;;7.10;100.00;98975.56;4987065;28;20033;-83
2022/11/09 03:14:49;;;;;;;0.40;0.40;;;;;;;7.14;100.00;98976.00;5052273;28;20105;-85
2022/11/09 03:17:18;;;;;;;0.40;0.40;;;;;;;7.12;100.00;98983.38;5006371;28;20036;-82
2022/11/09 03:19:44;;;;;;;0.30;0.30;;;;;;;7.05;100.00;98984.16;5024868;28;20033;-82
2022/11/09 03:22:09;;;;;;;0.40;0.40;;;;;;;7.04;100.00;98981.72;5010550;28;20033;-83
2022/11/09 03:24:35;;;;;;;0.40;0.40;;;;;;;7.09;100.00;98981.09;5002632;28;20503;-82
2022/11/09 03:27:00;;;;;;;0.40;0.40;;;;;;;7.21;100.00;98990.22;5006117;28;20040;-79
2022/11/09 03:29:26;;;;;;;0.50;0.50;;;;;;;7.07;100.00;98959.13;5022064;28;20041;-82
2022/11/09 03:31:52;;;;;;;0.40;0.40;;;;;;;7.43;100.00;98991.75;5005671;28;20483;-80
2022/11/09 03:34:17;;;;;;;0.40;0.40;;;;;;;7.49;100.00;98990.16;5006331;28;20405;-82
2022/11/09 03:36:43;;;;;;;0.40;0.40;;;;;;;7.53;100.00;99010.13;5026313;28;20037;-80
2022/11/09 03:39:08;;;;;;;0.38;0.38;;;;;;;7.37;100.00;98989.06;5024279;28;20037;-80
2022/11/09 03:41:34;;;;;;;0.40;0.40;;;;;;;7.39;100.00;99001.22;5025829;28;20407;-82
2022/11/09 03:44:00;;;;;;;0.30;0.30;;;;;;;7.31;100.00;99012.09;5025665;28;20064;-79
2022/11/09 03:46:26;;;;;;;0.43;0.43;;;;;;;7.26;100.00;99014.53;5025378;28;20037;-79
2022/11/09 03:48:52;;;;;;;0.40;0.40;;;;;;;7.22;100.00;99019.44;5027074;28;20033;-79
2022/11/09 03:51:18;;;;;;;0.40;0.40;;;;;;;7.12;100.00;99021.63;5026192;28;20062;-81
2022/11/09 03:53:43;;;;;;;0.40;0.40;;;;;;;7.00;100.00;99013.31;5024247;28;20505;-81
2022/11/09 03:56:09;;;;;;;0.40;0.40;;;;;;;7.17;100.00;99031.72;4993376;28;20037;-80
2022/11/09 03:58:34;;;;;;;0.40;0.40;;;;;;;7.19;100.00;99030.50;5015471;28;20038;-79
2022/11/09 04:01:00;;;;;;;0.40;0.40;;;;;;;7.21;100.00;99039.16;5014217;28;20129;-80
2022/11/09 04:03:26;;;;;;;0.50;0.50;;;;;;;7.20;100.00;99031.34;5020299;28;20570;-81
2022/11/09 04:05:51;;;;;;;0.35;0.35;;;;;;;7.26;100.00;99046.59;5019628;28;20041;-82
2022/11/09 04:08:36;;;;;;;0.40;0.40;;;;;;;7.14;100.00;99034.78;5001589;28;20162;-81
2022/11/09 04:11:01;;;;;;;0.40;0.40;;;;;;;7.19;100.00;99046.53;5003314;28;20056;-84
2022/11/09 04:13:27;;;;;;;0.40;0.40;;;;;;;7.13;100.00;99054.53;5015940;28;20391;-84
2022/11/09 04:15:52;;;;;;;0.40;0.40;;;;;;;7.08;100.00;99049.75;5023852;28;20116;-82
2022/11/09 04:18:18;;;;;;;0.43;0.43;;;;;;;7.09;100.00;99058.59;5024884;28;20483;-80
2022/11/09 04:20:44;;;;;;;0.40;0.40;;;;;;;7.05;100.00;99055.50;5019780;28;20071;-81
2022/11/09 04:23:11;;;;;;;0.40;0.40;;;;;;;7.13;100.00;99075.91;5020766;28;20072;-80
2022/11/09 04:25:38;;;;;;;0.40;0.40;;;;;;;7.04;100.00;99076.06;5021212;28;20040;-80
2022/11/09 04:28:06;;;;;;;0.40;0.40;;;;;;;6.97;100.00;99075.19;5001790;28;20499;-80
2022/11/09 04:30:33;;;;;;;0.40;0.40;;;;;;;6.91;100.00;99083.97;5002881;28;20307;-80
2022/11/09 04:32:59;;;;;;;0.40;0.40;;;;;;;6.91;100.00;99086.66;4999899;28;20087;-82
2022/11/09 04:35:26;;;;;;;0.40;0.40;;;;;;;6.84;100.00;99091.09;5017127;28;20116;-82
2022/11/09 04:38:00;;;;;;;0.40;0.40;;;;;;;6.88;100.00;99097.72;5021756;28;20529;-79
2022/11/09 04:40:28;;;;;;;0.50;0.50;;;;;;;6.92;100.00;99092.81;5023040;28;20037;-81
2022/11/09 04:42:53;;;;;;;0.40;0.40;;;;;;;6.90;100.00;99089.50;5010777;28;20136;-82
2022/11/09 04:45:20;;;;;;;0.40;0.40;;;;;;;6.97;100.00;99111.78;5039270;28;20116;-81
2022/11/09 04:47:46;;;;;;;0.40;0.40;;;;;;;7.02;100.00;99112.03;5006199;28;20021;-83
2022/11/09 04:50:12;;;;;;;0.40;0.40;;;;;;;7.03;100.00;99114.47;5004805;28;21631;-80
2022/11/09 04:52:38;;;;;;;0.40;0.40;;;;;;;7.07;100.00;99112.28;5022739;28;20024;-80
2022/11/09 04:55:04;;;;;;;0.40;0.40;;;;;;;6.92;100.00;99101.66;5024619;28;20037;-81
2022/11/09 04:57:30;;;;;;;0.40;0.40;;;;;;;6.89;100.00;99122.59;5021241;28;20025;-80
2022/11/09 04:59:55;;;;;;;0.40;0.40;;;;;;;6.63;100.00;99101.81;5019436;28;20056;-81
2022/11/09 05:02:21;;;;;;;0.40;0.40;;;;;;;6.56;100.00;99110.59;5005316;28;20030;-79
2022/11/09 05:04:47;;;;;;;0.30;0.30;;;;;;;6.43;100.00;99107.78;4993206;28;20391;-82
2022/11/09 05:07:12;;;;;;;0.45;0.45;;;;;;;6.34;100.00;99106.22;4982537;28;20089;-80
2022/11/09 05:09:38;;;;;;;0.40;0.40;;;;;;;6.41;100.00;99128.50;5007079;28;20469;-80
2022/11/09 05:12:04;;;;;;;0.40;0.40;;;;;;;6.26;100.00;99114.34;5007829;28;20177;-80
2022/11/09 05:14:30;;;;;;;0.40;0.40;;;;;;;6.29;100.00;99130.00;5001563;28;20107;-82
2022/11/09 05:16:55;;;;;;;0.40;0.40;;;;;;;6.23;100.00;99120.91;5024198;28;20042;-81
2022/11/09 05:19:21;;;;;;;0.50;0.50;;;;;;;6.24;100.00;99129.72;5019261;28;20058;-81
2022/11/09 05:21:46;;;;;;;0.30;0.30;;;;;;;6.33;100.00;99133.94;4996071;28;20029;-82
2022/11/09 05:24:12;;;;;;;0.40;0.40;;;;;;;6.38;100.00;99139.56;5004413;28;20092;-82
2022/11/09 05:26:41;;;;;;;0.40;0.40;;;;;;;6.46;100.00;99151.97;5002744;28;20372;-81
2022/11/09 05:29:08;;;;;;;0.40;0.40;;;;;;;6.47;100.00;99156.28;5020014;28;20069;-83
2022/11/09 05:31:34;;;;;;;0.40;0.40;;;;;;;6.53;100.00;99164.34;5024417;28;20037;-80
2022/11/09 05:34:01;;;;;;;0.40;0.40;;;;;;;6.61;100.00;99174.09;5019726;28;20369;-81
2022/11/09 05:36:27;;;;;;;0.40;0.40;;;;;;;6.68;100.00;99172.31;4990084;28;20037;-81
2022/11/09 05:38:53;;;;;;;0.40;0.40;;;;;;;6.72;100.00;99165.59;5004394;28;20044;-81
2022/11/09 05:41:19;;;;;;;0.40;0.40;;;;;;;6.73;100.00;99175.25;5023000;28;20041;-80
2022/11/09 05:43:45;;;;;;;0.40;0.40;;;;;;;6.71;100.00;99171.13;5004533;28;20609;-82
2022/11/09 05:46:13;;;;;;;0.40;0.40;;;;;;;6.80;100.00;99177.97;5005434;28;20116;-84
2022/11/09 05:48:39;;;;;;;0.40;0.40;;;;;;;6.88;100.00;99177.03;4992571;28;20033;-80
2022/11/09 05:51:06;;;;;;;0.40;0.40;;;;;;;6.93;100.00;99175.47;5008009;28;20053;-80
2022/11/09 05:53:31;;;;;;;0.40;0.40;;;;;;;7.00;100.00;99181.69;5022427;28;20025;-82
2022/11/09 05:56:04;;;;;;;0.40;0.40;;;;;;;7.12;100.00;99183.81;5012854;28;20387;-83
2022/11/09 05:58:32;;;;;;;0.40;0.40;;;;;;;7.19;100.00;99180.19;5045082;28;20044;-82
2022/11/09 06:00:58;;;;;;;0.30;0.30;;;;;;;7.34;100.00;99188.16;5004865;28;20041;-81
2022/11/09 06:03:30;;;;;;;0.30;0.30;;;;;;;7.41;100.00;99185.50;5020758;28;20743;-83
2022/11/09 06:05:59;;;;;;;0.38;0.38;;;;;;;7.55;100.00;99206.00;5054943;28;20034;-80
2022/11/09 06:08:25;;;;;;;0.40;0.40;;;;;;;7.65;100.00;99206.50;5025426;28;20052;-81
2022/11/09 06:10:56;;;;;;;0.40;0.40;;;;;;;7.72;100.00;99209.19;5028085;28;20399;-80
2022/11/09 06:13:22;;;;;;;0.40;0.40;;;;;;;7.83;100.00;99214.03;5006379;28;20116;-81
2022/11/09 06:15:54;;;;;;;0.40;0.40;;;;;;;7.90;100.00;99222.91;5009749;28;20546;-80
2022/11/09 06:18:21;;;;;;;0.40;0.40;;;;;;;7.88;100.00;99216.91;5005569;28;20443;-82
2022/11/09 06:20:50;;;;;;;0.40;0.40;;;;;;;7.80;100.00;99235.81;5006079;28;20292;-80
2022/11/09 06:23:16;;;;;;;0.40;0.40;;;;;;;7.84;100.00;99238.94;5019904;28;20053;-82
2022/11/09 06:25:42;;;;;;;0.40;0.40;;;;;;;7.70;100.00;99219.28;5024556;28;20096;-81
2022/11/09 06:28:07;;;;;;;0.30;0.30;;;;;;;7.75;100.00;99232.88;5020101;28;20502;-82
2022/11/09 06:30:33;;;;;;;0.40;0.40;;;;;;;7.75;100.00;99251.63;5001238;28;20033;-83
2022/11/09 06:33:00;;;;;;;0.40;0.40;;;;;;;7.75;100.00;99259.66;5002485;28;20088;-84
2022/11/09 06:35:26;;;;;;;0.40;0.40;;;;;;;7.76;100.00;99255.16;5025987;28;20033;-82
2022/11/09 06:37:56;;;;;;;0.40;0.40;;;;;;;7.78;100.00;99263.78;4999426;28;20498;-83
2022/11/09 06:40:22;;;;;;;0.40;0.40;;;;;;;7.76;100.00;99257.81;5010047;28;20156;-84
2022/11/09 06:42:47;;;;;;;0.40;0.40;;;;;;;7.77;100.00;99265.63;5002887;28;20037;-81
2022/11/09 06:45:13;;;;;;;0.40;0.40;;;;;;;7.72;100.00;99266.22;4985442;28;20034;-81
2022/11/09 06:47:44;;;;;;;0.40;0.40;;;;;;;7.66;100.00;99268.84;5018726;28;20034;-82
2022/11/09 06:50:10;;;;;;;0.30;0.30;;;;;;;7.54;100.00;99275.72;4989221;28;20030;-83
2022/11/09 06:52:36;;;;;;;0.40;0.40;;;;;;;7.36;100.00;99268.19;5003526;28;20060;-84
2022/11/09 06:55:01;;;;;;;0.40;0.40;;;;;;;7.28;100.00;99279.84;5024731;28;20025;-87
2022/11/09 06:57:30;;;;;;;0.40;0.40;;;;;;;7.26;100.00;99282.69;5025452;28;20264;-82
2022/11/09 06:59:56;;;;;;;0.40;0.40;;;;;;;7.16;100.00;99284.00;5035602;28;20055;-86
2022/11/09 07:02:21;;;;;;;0.40;0.40;;;;;;;7.17;100.00;99299.88;5008430;28;20049;-82
2022/11/09 07:04:51;;;;;;;0.50;0.50;;;;;;;7.12;100.00;99302.28;4995693;28;20057;-81
2022/11/09 07:07:16;;;;;;;0.40;0.40;;;;;;;7.10;100.00;99303.50;4996688;28;20076;-81
2022/11/09 07:09:42;;;;;;;0.50;0.50;;;;;;;6.94;100.00;99299.19;4994048;28;20069;-82
2022/11/09 07:12:08;;;;;;;0.40;0.40;;;;;;;6.90;100.00;99303.25;5005581;28;20045;-81
2022/11/09 07:14:39;;;;;;;0.40;0.40;;;;;;;6.80;100.00;99311.56;5008228;28;20188;-84
2022/11/09 07:17:04;;;;;;;0.40;0.40;;;;;;;6.72;100.00;99309.00;5012554;28;20037;-81
2022/11/09 07:19:30;;;;;;;0.43;0.43;;;;;;;6.65;100.00;99311.59;5021027;28;20476;-82
2022/11/09 07:21:56;;;;;;;0.50;0.50;;;;;;;6.66;100.00;99328.44;5023489;28;20045;-84
2022/11/09 07:24:22;;;;;;;0.40;0.40;;;;;;;6.59;100.00;99320.34;5002005;28;20066;-82
2022/11/09 07:26:49;;;;;;;0.30;0.30;;;;;;;6.67;100.00;99327.41;5000986;28;20041;-81
2022/11/09 07:29:15;;;;;;;0.40;0.40;;;;;;;6.65;100.00;99327.63;5002836;28;20626;-83
2022/11/09 07:31:41;;;;;;;0.40;0.40;;;;;;;6.64;100.00;99333.13;5005118;28;22342;-80
2022/11/09 07:34:06;;;;;;;0.40;0.40;;;;;;;6.63;100.00;99340.31;4992983;28;20068;-81
2022/11/09 07:36:33;;;;;;;0.40;0.40;;;;;;;6.62;100.00;99344.00;5026651;28;20143;-82
2022/11/09 07:38:58;;;;;;;0.40;0.40;;;;;;;6.57;100.00;99352.56;4993552;28;20030;-85
2022/11/09 07:41:24;;;;;;;0.40;0.40;;;;;;;6.64;100.00;99365.19;5005471;28;20056;-83
2022/11/09 07:43:50;;;;;;;0.43;0.43;;;;;;;6.72;100.00;99365.09;5026129;28;20515;-81
2022/11/09 07:46:15;;;;;;;0.40;0.40;;;;;;;6.89;100.00;99371.91;5025461;28;20033;-84
2022/11/09 07:48:41;;;;;;;0.40;0.40;;;;;;;6.96;100.00;99363.94;5005660;28;20421;-82
2022/11/09 07:51:09;;;;;;;0.40;0.40;;;;;;;7.16;100.00;99377.56;5020238;28;20036;-80
2022/11/09 07:53:35;;;;;;;0.40;0.40;;;;;;;7.21;100.00;99377.84;4994503;28;20076;-79
2022/11/09 07:56:02;;;;;;;0.40;0.40;;;;;;;7.38;100.00;99384.63;5009657;28;20495;-81
2022/11/09 07:58:28;;;;;;;0.40;0.40;;;;;;;7.51;100.00;99385.78;5023160;28;20041;-80
2022/11/09 08:00:54;;;;;;;0.40;0.40;;;;;;;7.55;100.00;99379.88;5021582;28;20595;-82
2022/11/09 08:03:23;;;;;;;0.40;0.40;;;;;;;7.58;100.00;99375.97;5039440;28;20045;-82
2022/11/09 08:05:49;;;;;;;0.40;0.40;;;;;;;7.57;100.00;99379.66;5020164;28;20467;-81
2022/11/09 08:08:15;;;;;;;0.40;0.40;;;;;;;7.62;100.00;99399.50;5010214;28;20468;-81
2022/11/09 08:10:42;;;;;;;0.40;0.40;;;;;;;7.59;100.00;99399.84;5016486;28;20100;-81
2022/11/09 08:13:12;;;;;;;0.40;0.40;;;;;;;7.53;100.00;99389.09;5022618;28;20025;-80
2022/11/09 08:15:39;;;;;;;0.40;0.40;;;;;;;7.63;100.00;99408.34;5004348;28;20052;-82
2022/11/09 08:18:23;;;;;;;0.40;0.40;;;;;;;7.66;100.00;99421.34;5032366;28;20182;-82
2022/11/09 08:20:49;;;;;;;0.40;0.40;;;;;;;7.78;100.00;99421.66;5001961;28;20479;-80
2022/11/09 08:23:17;;;;;;;0.40;0.40;;;;;;;7.92;100.00;99437.66;5022099;28;20040;-82
2022/11/09 08:25:43;;;;;;;0.40;0.40;;;;;;;8.08;100.00;99430.41;4994304;28;20060;-80
2022/11/09 08:28:10;;;;;;;0.45;0.45;;;;;;;8.31;100.00;99455.13;5007692;28;20460;-80
2022/11/09 08:30:36;;;;;;;0.40;0.40;;;;;;;8.30;100.00;99448.09;4992118;28;20044;-80
2022/11/09 08:33:03;;;;;;;0.40;0.40;;;;;;;8.40;100.00;99455.84;5003912;28;20037;-81
2022/11/09 08:35:29;;;;;;;0.40;0.40;;;;;;;8.36;100.00;99454.50;5003085;28;20476;-80
2022/11/09 08:37:55;;;;;;;0.40;0.40;;;;;;;8.65;100.00;99464.25;5028748;28;20042;-80
2022/11/09 08:40:24;;;;;;;0.40;0.40;;;;;;;8.81;100.00;99463.13;5020611;28;20037;-80
2022/11/09 08:42:53;;;;;;;0.47;0.47;;;;;;;8.85;100.00;99463.59;5020627;28;20038;-82
2022/11/09 08:45:19;;;;;;;0.50;0.50;;;;;;;8.89;100.00;99459.47;4993411;28;20037;-84
2022/11/09 08:47:45;;;;;;;0.50;0.50;;;;;;;9.02;100.00;99472.94;5021768;28;20029;-81
2022/11/09 08:50:15;;;;;;;0.40;0.40;;;;;;;8.94;100.00;99481.16;5020495;28;20063;-82
2022/11/09 08:52:41;;;;;;;0.50;0.50;;;;;;;8.67;100.00;99462.22;5004189;28;20544;-82
2022/11/09 08:55:07;;;;;;;0.47;0.47;;;;;;;8.64;100.00;99475.19;5023412;28;20096;-84
2022/11/09 08:57:32;;;;;;;0.50;0.50;;;;;;;8.63;100.00;99489.63;5009485;28;20029;-82
2022/11/09 08:59:58;;;;;;;0.50;0.50;;;;;;;8.74;100.00;99489.06;5003685;28;20036;-83
2022/11/09 09:02:24;;;;;;;0.40;0.40;;;;;;;8.87;100.00;99483.81;5016763;28;20033;-82
2022/11/09 09:04:49;;;;;;;0.93;0.93;;;;;;;9.14;100.00;99492.84;5008195;28;20886;-82
2022/11/09 09:07:15;;;;;;;0.50;0.50;;;;;;;9.40;100.00;99500.19;4999464;28;20061;-84
2022/11/09 09:09:41;;;;;;;0.50;0.50;;;;;;;9.55;100.00;99472.38;5021023;28;20116;-82
2022/11/09 09:12:08;;;;;;;0.50;0.50;;;;;;;10.10;100.00;99500.03;5004439;28;22233;-84
2022/11/09 09:14:34;;;;;;;0.50;0.50;;;;;;;10.33;100.00;99505.06;5022250;28;20038;-82
2022/11/09 09:16:59;;;;;;;0.60;0.60;;;;;;;11.07;100.00;99511.25;5006854;28;20037;-81
2022/11/09 09:19:28;;;;;;;0.60;0.60;;;;;;;11.77;100.00;99511.44;5005926;28;20352;-83
2022/11/09 09:21:57;;;;;;;0.60;0.60;;;;;;;12.52;100.00;99509.78;5024898;28;20034;-83
2022/11/09 09:24:23;;;;;;;0.60;0.60;;;;;;;12.92;100.00;99520.25;5020518;28;20045;-83
2022/11/09 09:26:48;;;;;;;0.50;0.50;;;;;;;12.89;100.00;99514.47;5000495;28;20715;-85
2022/11/09 09:29:14;;;;;;;0.65;0.65;;;;;;;13.32;100.00;99529.84;5043402;28;20041;-82
2022/11/09 09:31:43;;;;;;;0.77;0.77;;;;;;;13.74;97.84;99538.13;5000766;28;20071;-82
2022/11/09 09:34:10;;;;;;;0.70;0.70;;;;;;;14.27;95.63;99534.72;4999054;28;20041;-82
2022/11/09 09:36:35;;;;;;;0.80;0.80;;;;;;;14.82;92.60;99539.09;5026013;28;20116;-82
2022/11/09 09:39:01;;;;;;;0.70;0.70;;;;;;;15.30;89.60;99541.59;5002837;28;20230;-82
2022/11/09 09:41:37;;;;;;;1.10;1.10;;;;;;;14.20;93.45;99542.06;5007194;28;20049;-85
2022/11/09 09:44:40;;;;;;;0.52;0.52;;;;;;;12.37;100.00;99549.69;4989285;28;20048;-84
2022/11/09 09:47:15;;;;;;;1.10;1.02;;;;;;;12.97;100.00;99560.06;5013950;28;20137;-83
2022/11/09 09:49:55;;;;;;;1.10;1.00;;;;;;;12.61;100.00;99561.56;5025330;28;20029;-85
2022/11/09 09:52:45;;;;;;;2.67;1.65;;;;;;;12.40;100.00;99568.13;5040969;28;20045;-84
2022/11/09 09:55:10;;;;;;;1.80;0.70;;;;;;;12.03;100.00;99570.59;5017659;28;20063;-85
2022/11/09 09:57:38;;;;;;;0.70;0.70;;;;;;;11.75;100.00;99572.75;5028964;28;20038;-84
2022/11/09 10:00:09;;;;;;;4.35;2.17;;;;;;;11.64;100.00;99575.09;5026271;28;20044;-84
2022/11/09 10:02:35;;;;;;;2.03;1.00;;;;;;;11.63;100.00;99569.91;5026454;28;20032;-87
2022/11/09 10:05:06;;;;;;;5.25;1.48;;;;;;;11.62;100.00;99579.84;5012487;28;20094;-87
2022/11/09 10:07:58;;;;;;;4.95;1.52;;;;;;;11.49;100.00;99587.16;5024799;28;20029;-84
2022/11/09 10:10:43;;;;;;;0.70;0.70;;;;;;;11.63;100.00;99588.75;5010046;28;20053;-84
2022/11/09 10:13:18;;;;;;;3.38;1.00;;;;;;;11.75;100.00;99573.59;5024126;28;20045;-87
2022/11/09 10:16:05;;;;;;;2.75;0.98;;;;;;;11.95;100.00;99589.72;5009611;28;20045;-85
2022/11/09 10:18:37;;;;;;;4.22;1.27;;;;;;;12.06;100.00;99590.91;5043401;28;20103;-85
2022/11/09 10:21:24;;;;;;;3.88;1.08;;;;;;;12.19;100.00;99607.00;5013064;28;20151;-90
2022/11/09 10:24:18;;;;;;;4.32;1.20;;;;;;;12.32;100.00;99609.63;5026856;28;20045;-87
2022/11/09 10:26:50;;;;;;;2.67;1.17;;;;;;;12.36;100.00;99606.50;4993814;28;20147;-86
2022/11/09 10:29:24;;;;;;;6.60;1.67;;;;;;;12.38;100.00;99610.66;4991158;28;20044;-86
2022/11/09 10:31:57;;;;;;;5.03;1.23;;;;;;;12.21;100.00;99594.16;5020265;28;20495;-87
2022/11/09 10:34:31;;;;;;;2.47;0.90;;;;;;;12.18;100.00;99610.75;5008113;28;20033;-85
2022/11/09 10:37:13;;;;;;;3.35;0.93;;;;;;;12.25;100.00;99627.72;4995872;28;20038;-85
2022/11/09 10:39:43;;;;;;;11.32;1.30;;;;;;;12.30;100.00;99633.31;4994217;28;20047;-86
2022/11/09 10:42:10;;;;;;;4.38;1.20;;;;;;;12.38;100.00;99636.78;5032567;28;20033;-85
2022/11/09 10:44:35;;;;;;;0.85;0.75;;;;;;;12.44;100.00;99630.53;5030342;28;20391;-86
2022/11/09 10:47:07;;;;;;;2.60;0.95;;;;;;;12.69;100.00;99633.28;5015658;28;20033;-85
2022/11/09 10:49:33;;;;;;;6.20;1.10;;;;;;;12.72;100.00;99625.59;4998417;28;20603;-86
2022/11/09 10:51:59;;;;;;;1.27;1.00;;;;;;;12.74;100.00;99647.78;5026998;28;20116;-85
2022/11/09 10:54:32;;;;;;;3.10;1.05;;;;;;;12.68;100.00;99647.84;5032976;28;20060;-85
2022/11/09 10:57:22;;;;;;;4.90;1.48;;;;;;;12.73;100.00;99651.53;5010550;28;20056;-86
2022/11/09 10:59:58;;;;;;;11.93;1.70;;;;;;;12.85;100.00;99653.53;5000721;28;20060;-86
2022/11/09 11:02:24;;;;;;;4.88;1.55;;;;;;;12.89;100.00;99662.84;5030335;28;20076;-88
2022/11/09 11:05:05;;;;;;;4.60;1.23;;;;;;;12.74;100.00;99661.25;5023514;28;20061;-88
2022/11/09 11:07:31;;;;;;;2.58;0.80;;;;;;;12.31;100.00;99648.44;5029756;28;20145;-85
2022/11/09 11:10:16;;;;;;;6.97;1.48;;;;;;;11.90;100.00;99677.59;5012933;28;20542;-85
2022/11/09 11:12:45;;;;;;;3.78;1.20;;;;;;;11.29;100.00;99660.66;5009761;28;20502;-82
2022/11/09 11:15:39;;;;;;;0.93;0.93;;;;;;;10.94;100.00;99681.53;5046348;28;20075;-82
2022/11/09 11:18:16;;;;;;;0.50;0.50;;;;;;;10.64;100.00;99697.16;5039363;28;20068;-80
2022/11/09 11:20:42;;;;;;;0.65;0.65;;;;;;;10.64;100.00;99692.63;5017076;28;20041;-84
2022/11/09 11:23:08;;;;;;;0.50;0.50;;;;;;;11.33;100.00;99682.59;4990330;28;20038;-80
2022/11/09 11:25:39;;;;;;;0.50;0.50;;;;;;;12.15;100.00;99670.47;5023298;28;20022;-78
2022/11/09 11:28:16;;;;;;;0.50;0.50;;;;;;;13.51;100.00;99692.72;5022066;28;20399;-79
2022/11/09 11:30:42;;;;;;;0.55;0.55;;;;;;;13.33;100.00;99699.69;5009257;28;20033;-81
2022/11/09 11:33:17;;;;;;;0.50;0.50;;;;;;;13.20;100.00;99695.22;5013859;28;20379;-81
2022/11/09 11:36:05;;;;;;;0.40;0.40;;;;;;;13.18;100.00;99686.50;5023041;28;20079;-78